Chitose — JD2925 — position and weather

sailwx.info

Track history (hours):
 
Tides and Currents Weather Stations Pressure Air Temp Water Temp Dewpoint Dewpoint Depression Visibility Wind Speed Wind Dir Waves Ship Positions

Chitose

Last reported at 2017-May-24 04:00 UTC. Time now 2017-May-24 04:07 UTC.
Position N 35°27' E 139°40'.

Length 33 m; draft 3.8 m.

Type: Tug. MMSI: 431000953.

Date/timePositionNaut miles runAvg speedWind from/ knotsBaromVisibWave heightAir tempDewpointWater temp
2017-May-24 04:00N 35°27' E 139°40'0 0.1
2017-May-24 03:30N 35°27' E 139°40'0 0.1
2017-May-24 03:00N 35°27' E 139°40'0 0.0
2017-May-24 02:30N 35°27' E 139°40'0 0.1
2017-May-24 02:00N 35°27' E 139°40'0 0.0
2017-May-24 01:30N 35°27' E 139°40'0 0.0
2017-May-24 01:00N 35°27' E 139°40'0 0.4
2017-May-24 00:31N 35°27' E 139°40'5 9.7
2017-May-24 00:00N 35°29' E 139°46'2 4.5
2017-May-23 23:30N 35°31' E 139°46'4 7.5
2017-May-23 23:00N 35°29' E 139°42'3 5.9
2017-May-23 22:30N 35°27' E 139°40'0 0.0
2017-May-23 22:00N 35°27' E 139°40'0 0.0
2017-May-23 07:11N 35°27' E 139°40'0 0.0
2017-May-23 07:01N 35°27' E 139°40'0 0.0
2017-May-23 06:31N 35°27' E 139°40'0 0.0
2017-May-23 06:00N 35°27' E 139°40'2 3.9
2017-May-23 05:31N 35°28' E 139°41'5 9.5
2017-May-23 05:01N 35°31' E 139°46'2 3.1
2017-May-23 04:31N 35°30' E 139°45'3 6.3
2017-May-23 04:01N 35°27' E 139°43'1 2.0
2017-May-23 03:31N 35°28' E 139°44'4 7.0
2017-May-23 03:01N 35°27' E 139°40'0 0.6
2017-May-23 02:31N 35°27' E 139°40'0 0.0
2017-May-23 02:00N 35°27' E 139°40'0 0.0
2017-May-23 01:30N 35°27' E 139°40'0 0.0
2017-May-23 01:01N 35°27' E 139°40'0 0.0
2017-May-23 00:30N 35°27' E 139°40'0 0.0
2017-May-23 00:01N 35°27' E 139°40'0 0.0
2017-May-22 23:31N 35°27' E 139°40'0 0.0
2017-May-22 23:00N 35°27' E 139°40'0 0.0
2017-May-22 22:31N 35°27' E 139°40'0 0.0
2017-May-22 22:01N 35°27' E 139°40'0 0.0
2017-May-22 21:31N 35°27' E 139°40'0 0.0
2017-May-22 21:00N 35°27' E 139°40'0 0.0
2017-May-22 20:31N 35°27' E 139°40'0 0.0
2017-May-21 23:52N 35°27' E 139°40'0 0.8
2017-May-21 23:30N 35°27' E 139°39'0 0.0
2017-May-21 23:00N 35°27' E 139°39'2 3.6
2017-May-21 22:30N 35°28' E 139°41'1 1.6
2017-May-21 22:00N 35°28' E 139°42'3 5.4
2017-May-21 21:31N 35°26' E 139°45'2 4.7
2017-May-21 21:00N 35°27' E 139°42'0 0.1
2017-May-21 20:30N 35°27' E 139°42'0 0.0
2017-May-21 20:00N 35°27' E 139°42'0 0.1
2017-May-21 19:30N 35°27' E 139°42'0 0.0
2017-May-21 19:00N 35°27' E 139°42'0 0.0
2017-May-21 18:30N 35°27' E 139°42'0 0.1
2017-May-21 18:00N 35°27' E 139°42'0 0.0
2017-May-21 17:30N 35°27' E 139°42'0 0.1
2017-May-21 17:00N 35°27' E 139°42'0 0.0
2017-May-21 16:30N 35°27' E 139°42'0 0.1
2017-May-21 16:00N 35°27' E 139°42'0 0.0
2017-May-21 15:30N 35°27' E 139°42'0 0.0
2017-May-21 15:00N 35°27' E 139°42'0 0.0
2017-May-21 14:30N 35°27' E 139°42'0 0.0
2017-May-21 13:30N 35°27' E 139°42'0 0.9
2017-May-21 13:00N 35°27' E 139°41'1 1.1
2017-May-21 12:30N 35°26' E 139°41'1 2.3
2017-May-21 12:00N 35°27' E 139°40'0 0.0
2017-May-21 11:30N 35°27' E 139°40'0 0.0
2017-May-21 11:00N 35°27' E 139°40'0 0.0
2017-May-21 10:30N 35°27' E 139°40'0 0.0
2017-May-21 10:00N 35°27' E 139°40'0 0.0
2017-May-21 09:30N 35°27' E 139°40'1 2.0
2017-May-21 09:00N 35°27' E 139°41'1 1.8
2017-May-21 08:30N 35°26' E 139°42'2 3.2
2017-May-21 08:00N 35°27' E 139°40'1 1.2
2017-May-21 07:30N 35°27' E 139°40'0 0.0
2017-May-21 07:00N 35°27' E 139°40'0 0.0
2017-May-21 06:30N 35°27' E 139°40'0 0.0
2017-May-21 06:00N 35°27' E 139°40'0 0.0
2017-May-21 05:30N 35°27' E 139°40'0 0.0
2017-May-21 05:00N 35°27' E 139°40'0 0.0
2017-May-21 04:30N 35°27' E 139°40'0 0.0
2017-May-21 04:00N 35°27' E 139°40'0 0.0
2017-May-21 03:30N 35°27' E 139°40'0 0.0
2017-May-21 03:00N 35°27' E 139°40'0 0.0
2017-May-21 02:30N 35°27' E 139°40'0 0.0
2017-May-21 02:00N 35°27' E 139°40'0 0.0
2017-May-21 01:30N 35°27' E 139°40'0 0.0
2017-May-21 01:00N 35°27' E 139°40'0 0.0
2017-May-21 00:30N 35°27' E 139°40'2 4.6
2017-May-21 00:00N 35°27' E 139°42'4 8.7
2017-May-20 23:30N 35°28' E 139°48'1 2.1
2017-May-20 23:00N 35°29' E 139°48'2 4.4
2017-May-20 22:30N 35°31' E 139°46'0 0.5
2017-May-20 22:00N 35°31' E 139°46'4 8.9
2017-May-20 21:30N 35°29' E 139°42'2 4.5
2017-May-20 21:00N 35°27' E 139°40'0 0.0
2017-May-20 20:30N 35°27' E 139°40'0 0.0
2017-May-20 20:00N 35°27' E 139°40'0 0.0
2017-May-20 09:45N 35°27' E 139°40'1 5.1
2017-May-20 09:31N 35°26' E 139°41'0 0.4
2017-May-20 09:01N 35°26' E 139°41'2 4.5
2017-May-20 08:31N 35°26' E 139°44'1 1.7
2017-May-20 08:01N 35°25' E 139°43'3 6.2
2017-May-20 07:31N 35°27' E 139°40'0 0.0
2017-May-20 07:00N 35°27' E 139°40'0 0.1
2017-May-20 06:31N 35°27' E 139°40'0 0.1
2017-May-20 06:01N 35°27' E 139°40'0 0.0
2017-May-20 05:31N 35°27' E 139°40'0 0.0
2017-May-20 05:01N 35°27' E 139°40'0 0.0
2017-May-20 04:31N 35°27' E 139°40'0 0.0
2017-May-20 04:01N 35°27' E 139°40'0 0.0
2017-May-20 03:31N 35°27' E 139°40'0 0.0
2017-May-20 03:01N 35°27' E 139°40'0 0.0
2017-May-20 02:31N 35°27' E 139°40'0 0.0
2017-May-20 02:01N 35°27' E 139°40'0 0.0
2017-May-20 01:31N 35°27' E 139°40'0 0.0
2017-May-20 01:01N 35°27' E 139°40'0 0.0
2017-May-20 00:31N 35°27' E 139°40'0 0.0
2017-May-20 00:01N 35°27' E 139°40'2 3.1
2017-May-19 23:30N 35°28' E 139°41'0 0.4
2017-May-19 23:01N 35°28' E 139°41'1 1.4
2017-May-19 22:31N 35°28' E 139°42'2 3.7
2017-May-19 22:01N 35°27' E 139°43'2 3.1
2017-May-19 21:30N 35°26' E 139°45'1 2.1
2017-May-19 21:01N 35°27' E 139°44'3 6.7
2017-May-19 20:31N 35°27' E 139°40'0 0.0
2017-May-19 20:01N 35°27' E 139°40'0 0.0
2017-May-19 08:39N 35°27' E 139°40'0 0.0
2017-May-19 08:30N 35°27' E 139°40'0 0.4
2017-May-19 08:01N 35°27' E 139°40'510.0
2017-May-19 07:30N 35°29' E 139°45'2 4.1
2017-May-19 07:01N 35°31' E 139°46'4 7.7
2017-May-19 06:31N 35°29' E 139°42'2 3.8
2017-May-19 06:00N 35°28' E 139°44'0 0.4
2017-May-19 05:30N 35°28' E 139°44'0 0.1
2017-May-19 05:00N 35°28' E 139°44'0 0.0
2017-May-19 04:30N 35°28' E 139°44'0 0.0
2017-May-19 04:00N 35°28' E 139°44'1 1.3
2017-May-19 03:31N 35°28' E 139°43'3 6.9
2017-May-19 03:00N 35°31' E 139°45'0 0.4
2017-May-19 02:31N 35°31' E 139°45'3 6.4
2017-May-19 02:00N 35°29' E 139°42'3 6.4
2017-May-19 01:30N 35°26' E 139°45'2 3.2
2017-May-19 01:00N 35°28' E 139°44'0 0.0
2017-May-19 00:30N 35°28' E 139°44'0 0.0
2017-May-19 00:00N 35°28' E 139°44'2 3.6
2017-May-18 23:30N 35°29' E 139°46'2 4.6
2017-May-18 23:00N 35°31' E 139°46'1 1.2
2017-May-18 22:30N 35°31' E 139°46'4 8.2
2017-May-18 22:00N 35°28' E 139°43'3 5.8
2017-May-18 21:31N 35°29' E 139°46'4 7.5
2017-May-18 21:01N 35°27' E 139°42'2 3.5
2017-May-18 20:30N 35°27' E 139°40'0 0.0
2017-May-18 20:00N 35°27' E 139°40'0 0.0
2017-May-18 08:40N 35°27' E 139°40'0 0.8
2017-May-18 08:30N 35°27' E 139°40'1 2.3
2017-May-18 08:00N 35°26' E 139°41'0 0.0
2017-May-18 07:30N 35°26' E 139°41'1 2.4
2017-May-18 07:00N 35°27' E 139°40'0 0.0
2017-May-18 06:30N 35°27' E 139°40'0 0.0
2017-May-18 06:00N 35°27' E 139°40'0 0.0
2017-May-18 05:30N 35°27' E 139°40'0 0.0
2017-May-18 05:00N 35°27' E 139°40'1 2.4
2017-May-18 04:30N 35°27' E 139°41'1 1.3
2017-May-18 04:01N 35°26' E 139°41'0 0.0
2017-May-18 03:31N 35°26' E 139°41'2 3.8
2017-May-18 03:00N 35°28' E 139°41'0 0.4
2017-May-18 02:30N 35°28' E 139°41'1 1.2
2017-May-18 02:01N 35°28' E 139°41'3 5.2
2017-May-18 01:30N 35°27' E 139°44'1 2.6
2017-May-18 01:00N 35°26' E 139°42'2 4.0
2017-May-18 00:30N 35°27' E 139°40'0 0.0
2017-May-18 00:01N 35°27' E 139°40'0 0.0
2017-May-17 23:30N 35°27' E 139°40'0 0.0
2017-May-17 23:01N 35°27' E 139°40'0 0.0
2017-May-17 22:31N 35°27' E 139°40'0 0.0
2017-May-16 22:26N 35°27' E 139°40'2 4.4
2017-May-16 22:00N 35°29' E 139°40'1 1.7
2017-May-16 21:30N 35°28' E 139°40'3 5.2
2017-May-16 21:00N 35°27' E 139°43'0 0.6
2017-May-16 20:30N 35°27' E 139°43'0 0.0
2017-May-16 20:00N 35°27' E 139°43'0 0.0
2017-May-16 19:30N 35°27' E 139°43'1 2.4
2017-May-16 19:01N 35°27' E 139°41'0 0.7
2017-May-16 18:30N 35°27' E 139°41'1 2.2
2017-May-16 18:01N 35°27' E 139°42'0 0.0
2017-May-16 17:30N 35°27' E 139°42'0 0.0
2017-May-16 17:00N 35°27' E 139°42'0 0.0
2017-May-16 16:30N 35°27' E 139°42'0 0.1
2017-May-16 16:00N 35°27' E 139°42'4 7.3
2017-May-16 15:30N 35°23' E 139°41'1 1.7
2017-May-16 15:00N 35°24' E 139°41'1 0.9
2017-May-16 14:00N 35°23' E 139°40'0 0.0
2017-May-16 13:30N 35°23' E 139°40'0 0.0
2017-May-16 13:00N 35°23' E 139°40'0 0.0
2017-May-16 12:30N 35°23' E 139°40'0 0.0
2017-May-16 12:00N 35°23' E 139°40'0 1.0
2017-May-16 11:30N 35°24' E 139°40'0 0.2
2017-May-16 11:00N 35°24' E 139°41'2 3.7
2017-May-16 10:30N 35°25' E 139°42'1 1.0
2017-May-16 10:00N 35°26' E 139°42'0 0.0
2017-May-16 09:30N 35°26' E 139°42'0 0.0
2017-May-16 09:00N 35°26' E 139°42'0 0.0
2017-May-16 08:30N 35°26' E 139°42'0 0.7
2017-May-16 08:00N 35°26' E 139°42'1 1.2
2017-May-16 07:31N 35°26' E 139°41'1 2.5
2017-May-16 07:00N 35°27' E 139°40'0 0.0
2017-May-16 06:30N 35°27' E 139°40'0 0.0
2017-May-16 06:00N 35°27' E 139°40'0 0.0
2017-May-16 05:30N 35°27' E 139°40'0 0.0
2017-May-16 05:00N 35°27' E 139°40'0 0.0
2017-May-16 04:30N 35°27' E 139°40'0 0.0
2017-May-16 04:00N 35°27' E 139°40'0 0.0
2017-May-16 03:30N 35°27' E 139°40'0 0.0
2017-May-16 03:00N 35°27' E 139°40'0 0.0
2017-May-16 02:30N 35°27' E 139°40'0 0.0
2017-May-16 02:00N 35°27' E 139°40'0 0.0
2017-May-16 01:30N 35°27' E 139°40'0 0.0
2017-May-16 01:00N 35°27' E 139°40'0 0.0
2017-May-16 00:30N 35°27' E 139°40'0 0.0
2017-May-16 00:00N 35°27' E 139°40'0 0.0
2017-May-15 23:30N 35°27' E 139°40'0 0.0
2017-May-15 23:00N 35°27' E 139°40'0 0.0
2017-May-15 22:30N 35°27' E 139°40'0 0.0
2017-May-15 22:00N 35°27' E 139°40'0 0.0
2017-May-15 21:30N 35°27' E 139°40'0 0.0
2017-May-15 21:00N 35°27' E 139°40'0 0.0
2017-May-15 20:30N 35°27' E 139°40'0 0.0
2017-May-15 20:00N 35°27' E 139°40'0 0.0
2017-May-15 19:30N 35°27' E 139°40'0 0.0
2017-May-15 19:00N 35°27' E 139°40'0 0.0
2017-May-15 18:30N 35°27' E 139°40'0 0.0
2017-May-15 18:00N 35°27' E 139°40'0 0.0
2017-May-15 17:30N 35°27' E 139°40'0 0.0
2017-May-15 17:00N 35°27' E 139°40'0 0.0
2017-May-15 16:30N 35°27' E 139°40'0 0.0
2017-May-15 16:00N 35°27' E 139°40'0 0.0
2017-May-15 15:30N 35°27' E 139°40'0 0.0
2017-May-15 15:00N 35°27' E 139°40'0 0.0
2017-May-15 14:00N 35°27' E 139°40'0 0.0
2017-May-15 13:30N 35°27' E 139°40'0 0.0
2017-May-15 13:00N 35°27' E 139°40'0 0.0
2017-May-15 12:30N 35°27' E 139°40'0 0.0
2017-May-15 12:00N 35°27' E 139°40'0 0.0
2017-May-15 11:30N 35°27' E 139°40'0 0.0
2017-May-15 11:00N 35°27' E 139°40'0 0.0
2017-May-15 10:30N 35°27' E 139°40'0 0.0
2017-May-15 10:00N 35°27' E 139°40'0 0.0
2017-May-15 09:30N 35°27' E 139°40'0 0.0
2017-May-15 09:00N 35°27' E 139°40'0 0.0
2017-May-15 08:30N 35°27' E 139°40'0 0.0
2017-May-15 08:00N 35°27' E 139°40'0 0.0
2017-May-15 07:30N 35°27' E 139°40'0 0.0
2017-May-15 07:00N 35°27' E 139°40'0 0.0
2017-May-15 06:30N 35°27' E 139°40'0 0.0
2017-May-15 06:00N 35°27' E 139°40'0 0.0
2017-May-15 05:30N 35°27' E 139°40'0 0.0
2017-May-15 05:00N 35°27' E 139°40'0 0.2
2017-May-15 04:30N 35°27' E 139°40'1 2.4
2017-May-15 04:00N 35°26' E 139°41'0 0.6
2017-May-15 03:30N 35°27' E 139°41'1 2.2
2017-May-15 03:00N 35°27' E 139°40'0 0.0
2017-May-15 02:30N 35°27' E 139°40'0 0.0
2017-May-15 02:00N 35°27' E 139°40'0 0.0
2017-May-15 01:30N 35°27' E 139°40'0 0.0
2017-May-15 01:00N 35°27' E 139°40'0 0.0
2017-May-15 00:30N 35°27' E 139°40'0 0.0
2017-May-15 00:00N 35°27' E 139°40'0 0.0
2017-May-14 23:30N 35°27' E 139°40'0 0.0
2017-May-14 23:00N 35°27' E 139°40'  
Track history (hours):
 
Tides and Currents Weather Stations Pressure Air Temp Water Temp Dewpoint Dewpoint Depression Visibility Wind Speed Wind Dir Waves Ship Positions

Chitose

Last reported at 2017-May-24 04:00 UTC. Time now 2017-May-24 04:07 UTC.
Position N 35°27' E 139°40'.

Length 33 m; draft 3.8 m.

Type: Tug. MMSI: 431000953.

Date/timePositionNaut miles runAvg speedWind from/ knotsBaromVisibWave heightAir tempDewpointWater temp
2017-May-24 04:00N 35°27' E 139°40'0 0.1
2017-May-24 03:30N 35°27' E 139°40'0 0.1
2017-May-24 03:00N 35°27' E 139°40'0 0.0
2017-May-24 02:30N 35°27' E 139°40'0 0.1
2017-May-24 02:00N 35°27' E 139°40'0 0.0
2017-May-24 01:30N 35°27' E 139°40'0 0.0
2017-May-24 01:00N 35°27' E 139°40'0 0.4
2017-May-24 00:31N 35°27' E 139°40'5 9.7
2017-May-24 00:00N 35°29' E 139°46'2 4.5
2017-May-23 23:30N 35°31' E 139°46'4 7.5
2017-May-23 23:00N 35°29' E 139°42'3 5.9
2017-May-23 22:30N 35°27' E 139°40'0 0.0
2017-May-23 22:00N 35°27' E 139°40'0 0.0
2017-May-23 07:11N 35°27' E 139°40'0 0.0
2017-May-23 07:01N 35°27' E 139°40'0 0.0
2017-May-23 06:31N 35°27' E 139°40'0 0.0
2017-May-23 06:00N 35°27' E 139°40'2 3.9
2017-May-23 05:31N 35°28' E 139°41'5 9.5
2017-May-23 05:01N 35°31' E 139°46'2 3.1
2017-May-23 04:31N 35°30' E 139°45'3 6.3
2017-May-23 04:01N 35°27' E 139°43'1 2.0
2017-May-23 03:31N 35°28' E 139°44'4 7.0
2017-May-23 03:01N 35°27' E 139°40'0 0.6
2017-May-23 02:31N 35°27' E 139°40'0 0.0
2017-May-23 02:00N 35°27' E 139°40'0 0.0
2017-May-23 01:30N 35°27' E 139°40'0 0.0
2017-May-23 01:01N 35°27' E 139°40'0 0.0
2017-May-23 00:30N 35°27' E 139°40'0 0.0
2017-May-23 00:01N 35°27' E 139°40'0 0.0
2017-May-22 23:31N 35°27' E 139°40'0 0.0
2017-May-22 23:00N 35°27' E 139°40'0 0.0
2017-May-22 22:31N 35°27' E 139°40'0 0.0
2017-May-22 22:01N 35°27' E 139°40'0 0.0
2017-May-22 21:31N 35°27' E 139°40'0 0.0
2017-May-22 21:00N 35°27' E 139°40'0 0.0
2017-May-22 20:31N 35°27' E 139°40'0 0.0
2017-May-21 23:52N 35°27' E 139°40'0 0.8
2017-May-21 23:30N 35°27' E 139°39'0 0.0
2017-May-21 23:00N 35°27' E 139°39'2 3.6
2017-May-21 22:30N 35°28' E 139°41'1 1.6
2017-May-21 22:00N 35°28' E 139°42'3 5.4
2017-May-21 21:31N 35°26' E 139°45'2 4.7
2017-May-21 21:00N 35°27' E 139°42'0 0.1
2017-May-21 20:30N 35°27' E 139°42'0 0.0
2017-May-21 20:00N 35°27' E 139°42'0 0.1
2017-May-21 19:30N 35°27' E 139°42'0 0.0
2017-May-21 19:00N 35°27' E 139°42'0 0.0
2017-May-21 18:30N 35°27' E 139°42'0 0.1
2017-May-21 18:00N 35°27' E 139°42'0 0.0
2017-May-21 17:30N 35°27' E 139°42'0 0.1
2017-May-21 17:00N 35°27' E 139°42'0 0.0
2017-May-21 16:30N 35°27' E 139°42'0 0.1
2017-May-21 16:00N 35°27' E 139°42'0 0.0
2017-May-21 15:30N 35°27' E 139°42'0 0.0
2017-May-21 15:00N 35°27' E 139°42'0 0.0
2017-May-21 14:30N 35°27' E 139°42'0 0.0
2017-May-21 13:30N 35°27' E 139°42'0 0.9
2017-May-21 13:00N 35°27' E 139°41'1 1.1
2017-May-21 12:30N 35°26' E 139°41'1 2.3
2017-May-21 12:00N 35°27' E 139°40'0 0.0
2017-May-21 11:30N 35°27' E 139°40'0 0.0
2017-May-21 11:00N 35°27' E 139°40'0 0.0
2017-May-21 10:30N 35°27' E 139°40'0 0.0
2017-May-21 10:00N 35°27' E 139°40'0 0.0
2017-May-21 09:30N 35°27' E 139°40'1 2.0
2017-May-21 09:00N 35°27' E 139°41'1 1.8
2017-May-21 08:30N 35°26' E 139°42'2 3.2
2017-May-21 08:00N 35°27' E 139°40'1 1.2
2017-May-21 07:30N 35°27' E 139°40'0 0.0
2017-May-21 07:00N 35°27' E 139°40'0 0.0
2017-May-21 06:30N 35°27' E 139°40'0 0.0
2017-May-21 06:00N 35°27' E 139°40'0 0.0
2017-May-21 05:30N 35°27' E 139°40'0 0.0
2017-May-21 05:00N 35°27' E 139°40'0 0.0
2017-May-21 04:30N 35°27' E 139°40'0 0.0
2017-May-21 04:00N 35°27' E 139°40'0 0.0
2017-May-21 03:30N 35°27' E 139°40'0 0.0
2017-May-21 03:00N 35°27' E 139°40'0 0.0
2017-May-21 02:30N 35°27' E 139°40'0 0.0
2017-May-21 02:00N 35°27' E 139°40'0 0.0
2017-May-21 01:30N 35°27' E 139°40'0 0.0
2017-May-21 01:00N 35°27' E 139°40'0 0.0
2017-May-21 00:30N 35°27' E 139°40'2 4.6
2017-May-21 00:00N 35°27' E 139°42'4 8.7
2017-May-20 23:30N 35°28' E 139°48'1 2.1
2017-May-20 23:00N 35°29' E 139°48'2 4.4
2017-May-20 22:30N 35°31' E 139°46'0 0.5
2017-May-20 22:00N 35°31' E 139°46'4 8.9
2017-May-20 21:30N 35°29' E 139°42'2 4.5
2017-May-20 21:00N 35°27' E 139°40'0 0.0
2017-May-20 20:30N 35°27' E 139°40'0 0.0
2017-May-20 20:00N 35°27' E 139°40'0 0.0
2017-May-20 09:45N 35°27' E 139°40'1 5.1
2017-May-20 09:31N 35°26' E 139°41'0 0.4
2017-May-20 09:01N 35°26' E 139°41'2 4.5
2017-May-20 08:31N 35°26' E 139°44'1 1.7
2017-May-20 08:01N 35°25' E 139°43'3 6.2
2017-May-20 07:31N 35°27' E 139°40'0 0.0
2017-May-20 07:00N 35°27' E 139°40'0 0.1
2017-May-20 06:31N 35°27' E 139°40'0 0.1
2017-May-20 06:01N 35°27' E 139°40'0 0.0
2017-May-20 05:31N 35°27' E 139°40'0 0.0
2017-May-20 05:01N 35°27' E 139°40'0 0.0
2017-May-20 04:31N 35°27' E 139°40'0 0.0
2017-May-20 04:01N 35°27' E 139°40'0 0.0
2017-May-20 03:31N 35°27' E 139°40'0 0.0
2017-May-20 03:01N 35°27' E 139°40'0 0.0
2017-May-20 02:31N 35°27' E 139°40'0 0.0
2017-May-20 02:01N 35°27' E 139°40'0 0.0
2017-May-20 01:31N 35°27' E 139°40'0 0.0
2017-May-20 01:01N 35°27' E 139°40'0 0.0
2017-May-20 00:31N 35°27' E 139°40'0 0.0
2017-May-20 00:01N 35°27' E 139°40'2 3.1
2017-May-19 23:30N 35°28' E 139°41'0 0.4
2017-May-19 23:01N 35°28' E 139°41'1 1.4
2017-May-19 22:31N 35°28' E 139°42'2 3.7
2017-May-19 22:01N 35°27' E 139°43'2 3.1
2017-May-19 21:30N 35°26' E 139°45'1 2.1
2017-May-19 21:01N 35°27' E 139°44'3 6.7
2017-May-19 20:31N 35°27' E 139°40'0 0.0
2017-May-19 20:01N 35°27' E 139°40'0 0.0
2017-May-19 08:39N 35°27' E 139°40'0 0.0
2017-May-19 08:30N 35°27' E 139°40'0 0.4
2017-May-19 08:01N 35°27' E 139°40'510.0
2017-May-19 07:30N 35°29' E 139°45'2 4.1
2017-May-19 07:01N 35°31' E 139°46'4 7.7
2017-May-19 06:31N 35°29' E 139°42'2 3.8
2017-May-19 06:00N 35°28' E 139°44'0 0.4
2017-May-19 05:30N 35°28' E 139°44'0 0.1
2017-May-19 05:00N 35°28' E 139°44'0 0.0
2017-May-19 04:30N 35°28' E 139°44'0 0.0
2017-May-19 04:00N 35°28' E 139°44'1 1.3
2017-May-19 03:31N 35°28' E 139°43'3 6.9
2017-May-19 03:00N 35°31' E 139°45'0 0.4
2017-May-19 02:31N 35°31' E 139°45'3 6.4
2017-May-19 02:00N 35°29' E 139°42'3 6.4
2017-May-19 01:30N 35°26' E 139°45'2 3.2
2017-May-19 01:00N 35°28' E 139°44'0 0.0
2017-May-19 00:30N 35°28' E 139°44'0 0.0
2017-May-19 00:00N 35°28' E 139°44'2 3.6
2017-May-18 23:30N 35°29' E 139°46'2 4.6
2017-May-18 23:00N 35°31' E 139°46'1 1.2
2017-May-18 22:30N 35°31' E 139°46'4 8.2
2017-May-18 22:00N 35°28' E 139°43'3 5.8
2017-May-18 21:31N 35°29' E 139°46'4 7.5
2017-May-18 21:01N 35°27' E 139°42'2 3.5
2017-May-18 20:30N 35°27' E 139°40'0 0.0
2017-May-18 20:00N 35°27' E 139°40'0 0.0
2017-May-18 08:40N 35°27' E 139°40'0 0.8
2017-May-18 08:30N 35°27' E 139°40'1 2.3
2017-May-18 08:00N 35°26' E 139°41'0 0.0
2017-May-18 07:30N 35°26' E 139°41'1 2.4
2017-May-18 07:00N 35°27' E 139°40'0 0.0
2017-May-18 06:30N 35°27' E 139°40'0 0.0
2017-May-18 06:00N 35°27' E 139°40'0 0.0
2017-May-18 05:30N 35°27' E 139°40'0 0.0
2017-May-18 05:00N 35°27' E 139°40'1 2.4
2017-May-18 04:30N 35°27' E 139°41'1 1.3
2017-May-18 04:01N 35°26' E 139°41'0 0.0
2017-May-18 03:31N 35°26' E 139°41'2 3.8
2017-May-18 03:00N 35°28' E 139°41'0 0.4
2017-May-18 02:30N 35°28' E 139°41'1 1.2
2017-May-18 02:01N 35°28' E 139°41'3 5.2
2017-May-18 01:30N 35°27' E 139°44'1 2.6
2017-May-18 01:00N 35°26' E 139°42'2 4.0
2017-May-18 00:30N 35°27' E 139°40'0 0.0
2017-May-18 00:01N 35°27' E 139°40'0 0.0
2017-May-17 23:30N 35°27' E 139°40'0 0.0
2017-May-17 23:01N 35°27' E 139°40'0 0.0
2017-May-17 22:31N 35°27' E 139°40'0 0.0
2017-May-16 22:26N 35°27' E 139°40'2 4.4
2017-May-16 22:00N 35°29' E 139°40'1 1.7
2017-May-16 21:30N 35°28' E 139°40'3 5.2
2017-May-16 21:00N 35°27' E 139°43'0 0.6
2017-May-16 20:30N 35°27' E 139°43'0 0.0
2017-May-16 20:00N 35°27' E 139°43'0 0.0
2017-May-16 19:30N 35°27' E 139°43'1 2.4
2017-May-16 19:01N 35°27' E 139°41'0 0.7
2017-May-16 18:30N 35°27' E 139°41'1 2.2
2017-May-16 18:01N 35°27' E 139°42'0 0.0
2017-May-16 17:30N 35°27' E 139°42'0 0.0
2017-May-16 17:00N 35°27' E 139°42'0 0.0
2017-May-16 16:30N 35°27' E 139°42'0 0.1
2017-May-16 16:00N 35°27' E 139°42'4 7.3
2017-May-16 15:30N 35°23' E 139°41'1 1.7
2017-May-16 15:00N 35°24' E 139°41'1 0.9
2017-May-16 14:00N 35°23' E 139°40'0 0.0
2017-May-16 13:30N 35°23' E 139°40'0 0.0
2017-May-16 13:00N 35°23' E 139°40'0 0.0
2017-May-16 12:30N 35°23' E 139°40'0 0.0
2017-May-16 12:00N 35°23' E 139°40'0 1.0
2017-May-16 11:30N 35°24' E 139°40'0 0.2
2017-May-16 11:00N 35°24' E 139°41'2 3.7
2017-May-16 10:30N 35°25' E 139°42'1 1.0
2017-May-16 10:00N 35°26' E 139°42'0 0.0
2017-May-16 09:30N 35°26' E 139°42'0 0.0
2017-May-16 09:00N 35°26' E 139°42'0 0.0
2017-May-16 08:30N 35°26' E 139°42'0 0.7
2017-May-16 08:00N 35°26' E 139°42'1 1.2
2017-May-16 07:31N 35°26' E 139°41'1 2.5
2017-May-16 07:00N 35°27' E 139°40'0 0.0
2017-May-16 06:30N 35°27' E 139°40'0 0.0
2017-May-16 06:00N 35°27' E 139°40'0 0.0
2017-May-16 05:30N 35°27' E 139°40'0 0.0
2017-May-16 05:00N 35°27' E 139°40'0 0.0
2017-May-16 04:30N 35°27' E 139°40'0 0.0
2017-May-16 04:00N 35°27' E 139°40'0 0.0
2017-May-16 03:30N 35°27' E 139°40'0 0.0
2017-May-16 03:00N 35°27' E 139°40'0 0.0
2017-May-16 02:30N 35°27' E 139°40'0 0.0
2017-May-16 02:00N 35°27' E 139°40'0 0.0
2017-May-16 01:30N 35°27' E 139°40'0 0.0
2017-May-16 01:00N 35°27' E 139°40'0 0.0
2017-May-16 00:30N 35°27' E 139°40'0 0.0
2017-May-16 00:00N 35°27' E 139°40'0 0.0
2017-May-15 23:30N 35°27' E 139°40'0 0.0
2017-May-15 23:00N 35°27' E 139°40'0 0.0
2017-May-15 22:30N 35°27' E 139°40'0 0.0
2017-May-15 22:00N 35°27' E 139°40'0 0.0
2017-May-15 21:30N 35°27' E 139°40'0 0.0
2017-May-15 21:00N 35°27' E 139°40'0 0.0
2017-May-15 20:30N 35°27' E 139°40'0 0.0
2017-May-15 20:00N 35°27' E 139°40'0 0.0
2017-May-15 19:30N 35°27' E 139°40'0 0.0
2017-May-15 19:00N 35°27' E 139°40'0 0.0
2017-May-15 18:30N 35°27' E 139°40'0 0.0
2017-May-15 18:00N 35°27' E 139°40'0 0.0
2017-May-15 17:30N 35°27' E 139°40'0 0.0
2017-May-15 17:00N 35°27' E 139°40'0 0.0
2017-May-15 16:30N 35°27' E 139°40'0 0.0
2017-May-15 16:00N 35°27' E 139°40'0 0.0
2017-May-15 15:30N 35°27' E 139°40'0 0.0
2017-May-15 15:00N 35°27' E 139°40'0 0.0
2017-May-15 14:00N 35°27' E 139°40'0 0.0
2017-May-15 13:30N 35°27' E 139°40'0 0.0
2017-May-15 13:00N 35°27' E 139°40'0 0.0
2017-May-15 12:30N 35°27' E 139°40'0 0.0
2017-May-15 12:00N 35°27' E 139°40'0 0.0
2017-May-15 11:30N 35°27' E 139°40'0 0.0
2017-May-15 11:00N 35°27' E 139°40'0 0.0
2017-May-15 10:30N 35°27' E 139°40'0 0.0
2017-May-15 10:00N 35°27' E 139°40'0 0.0
2017-May-15 09:30N 35°27' E 139°40'0 0.0
2017-May-15 09:00N 35°27' E 139°40'0 0.0
2017-May-15 08:30N 35°27' E 139°40'0 0.0
2017-May-15 08:00N 35°27' E 139°40'0 0.0
2017-May-15 07:30N 35°27' E 139°40'0 0.0
2017-May-15 07:00N 35°27' E 139°40'0 0.0
2017-May-15 06:30N 35°27' E 139°40'0 0.0
2017-May-15 06:00N 35°27' E 139°40'0 0.0
2017-May-15 05:30N 35°27' E 139°40'0 0.0
2017-May-15 05:00N 35°27' E 139°40'0 0.2
2017-May-15 04:30N 35°27' E 139°40'1 2.4
2017-May-15 04:00N 35°26' E 139°41'0 0.6
2017-May-15 03:30N 35°27' E 139°41'1 2.2
2017-May-15 03:00N 35°27' E 139°40'0 0.0
2017-May-15 02:30N 35°27' E 139°40'0 0.0
2017-May-15 02:00N 35°27' E 139°40'0 0.0
2017-May-15 01:30N 35°27' E 139°40'0 0.0
2017-May-15 01:00N 35°27' E 139°40'0 0.0
2017-May-15 00:30N 35°27' E 139°40'0 0.0
2017-May-15 00:00N 35°27' E 139°40'0 0.0
2017-May-14 23:30N 35°27' E 139°40'0 0.0
2017-May-14 23:00N 35°27' E 139°40'  

Dump ship's entire track history